CheckWX is a tool to help pilots better visualize weather data.  It is not intended as a substitute for an official pre-flight weather briefing.

14:00:37 UTC

I75 METAR
Osceola Municipal Airport
Osceola, Iowa, USA
Current

6 mins ago

KI75 251355Z AUTO 25008KT 7SM CLR 15/12 A2979 RMK AO2 T01470124
Observed
Apr-25 @ 13:55 UTC
Wind
  • 250° at 8 KTS
Visibility
7 SM
Flight Rules
VFR
Cloud Levels
  • Clear skies
Temperature
15°C / 59°F
Dewpoint
12°C / 54°F
Humidity
82%
Altimeter
29.79" Hg
Pressure
1008.82 hPa
Previous

26 mins ago

KI75 251335Z AUTO 23008KT 5SM BR CLR 14/12 A2980 RMK AO2 T01390121
Observed
Apr-25 @ 13:35 UTC
Wind
  • 230° at 8 KTS
Visibility
5 SM
Flight Rules
MVFR
Conditions
Mist
Cloud Levels
  • Clear skies
Temperature
14°C / 57°F
Dewpoint
12°C / 54°F
Humidity
88%
Altimeter
29.8" Hg
Pressure
1009.12 hPa
Previous

46 mins ago

KI75 251315Z AUTO 22009KT 4SM BR CLR 13/12 A2980 RMK AO2 T01310118
Observed
Apr-25 @ 13:15 UTC
Wind
  • 220° at 9 KTS
Visibility
4 SM
Flight Rules
MVFR
Conditions
Mist
Cloud Levels
  • Clear skies
Temperature
13°C / 55°F
Dewpoint
12°C / 54°F
Humidity
94%
Altimeter
29.8" Hg
Pressure
1009.12 hPa